Time;durP1;ratioP1;P1;durP2;ratioP2;P2;SDS_P1;SDS_P2;PMS_P1;PMS_P2;Temp;Humidity;BMP_temperature;BMP_pressure;BME280_temperature;BME280_humidity;BME280_pressure;Samples;Min_cycle;Max_cycle;Signal;HPM_P1;HPM_P2
2022/02/15 00:00:26;;;;;;;50.25;30.42;;;;;;;0.00;81.19;93834.38;5092776;28;20031;-39
2022/02/15 00:02:51;;;;;;;58.25;31.60;;;;;;;-0.02;81.38;93828.66;5092709;28;20111;-39
2022/02/15 00:05:17;;;;;;;55.63;32.92;;;;;;;-0.15;81.32;93833.66;5092474;28;20052;-39
2022/02/15 00:07:43;;;;;;;44.22;24.40;;;;;;;-0.11;81.16;93795.50;5092517;28;20032;-39
2022/02/15 00:10:09;;;;;;;48.22;26.67;;;;;;;0.06;80.79;93826.34;5092393;28;20028;-38
2022/02/15 00:12:35;;;;;;;49.22;25.17;;;;;;;0.27;80.17;93819.72;5092569;28;20074;-39
2022/02/15 00:15:01;;;;;;;50.75;24.23;;;;;;;0.21;81.31;93826.28;5092485;28;20051;-39
2022/02/15 00:17:26;;;;;;;52.75;24.02;;;;;;;0.10;81.67;93826.13;5092182;28;20507;-36
2022/02/15 00:19:52;;;;;;;47.53;23.08;;;;;;;0.24;81.10;93825.34;5092017;28;20023;-37
2022/02/15 00:22:17;;;;;;;52.55;24.05;;;;;;;0.11;80.95;93825.63;5090947;28;20027;-39
2022/02/15 00:24:42;;;;;;;47.38;23.95;;;;;;;-0.03;81.04;93823.72;5091956;28;20024;-38
2022/02/15 00:27:08;;;;;;;42.75;23.25;;;;;;;-0.15;82.01;93828.22;5091936;28;20081;-38
2022/02/15 00:29:33;;;;;;;72.30;32.92;;;;;;;-0.37;82.53;93833.31;5091933;28;20093;-40
2022/02/15 00:31:59;;;;;;;50.75;25.98;;;;;;;-0.45;84.36;93834.16;5092186;28;20020;-40
2022/02/15 00:34:24;;;;;;;46.63;25.15;;;;;;;-0.17;84.81;93830.66;5092151;28;20023;-39
2022/02/15 00:36:50;;;;;;;50.75;27.83;;;;;;;-0.01;84.31;93834.84;5098891;28;20081;-38
2022/02/15 00:39:15;;;;;;;47.03;24.55;;;;;;;0.19;82.88;93839.59;5112025;28;20051;-37
2022/02/15 00:41:41;;;;;;;45.35;23.55;;;;;;;0.32;81.61;93831.88;5112086;28;20046;-35
2022/02/15 00:44:06;;;;;;;43.72;23.00;;;;;;;0.48;80.97;93829.38;5112088;28;20027;-38
2022/02/15 00:46:32;;;;;;;48.33;23.83;;;;;;;0.18;81.16;93827.97;5112030;27;20067;-39
2022/02/15 00:48:57;;;;;;;52.17;26.17;;;;;;;-0.11;82.04;93820.63;5111870;28;20114;-39
2022/02/15 00:51:23;;;;;;;54.00;27.92;;;;;;;0.02;82.31;93823.06;5112090;28;20080;-38
2022/02/15 00:53:48;;;;;;;47.17;24.50;;;;;;;0.23;81.75;93826.56;5112177;28;20104;-40
2022/02/15 00:56:14;;;;;;;42.22;24.17;;;;;;;0.23;81.62;93818.41;5112069;28;20023;-37
2022/02/15 00:58:39;;;;;;;33.47;19.55;;;;;;;0.35;81.09;93822.75;5111778;28;20031;-40
2022/02/15 01:01:05;;;;;;;37.60;20.77;;;;;;;0.37;80.55;93820.34;5111950;28;20034;-38
2022/02/15 01:03:30;;;;;;;33.75;18.30;;;;;;;0.22;80.06;93812.22;5111647;28;20023;-40
2022/02/15 01:05:57;;;;;;;38.33;21.27;;;;;;;0.23;81.00;93808.31;5111550;28;20035;-38
2022/02/15 01:08:23;;;;;;;35.03;20.98;;;;;;;0.23;79.87;93789.28;5111761;28;20045;-34
2022/02/15 01:10:49;;;;;;;34.28;18.98;;;;;;;0.23;79.71;93808.31;5111516;28;20485;-38
2022/02/15 01:13:14;;;;;;;38.90;21.40;;;;;;;0.16;79.56;93803.25;5111428;28;20027;-38
2022/02/15 01:15:40;;;;;;;35.83;21.50;;;;;;;0.08;80.24;93799.47;5111771;28;20042;-36
2022/02/15 01:18:05;;;;;;;42.58;23.30;;;;;;;-0.10;79.98;93799.69;5111645;28;20031;-38
2022/02/15 01:20:31;;;;;;;38.25;22.52;;;;;;;-0.20;80.19;93788.22;5111627;28;20653;-35
2022/02/15 01:22:56;;;;;;;33.83;20.20;;;;;;;-0.05;80.31;93783.50;5111237;28;20039;-39
2022/02/15 01:25:23;;;;;;;38.40;22.23;;;;;;;0.00;79.28;93784.78;5111556;28;20078;-37
2022/02/15 01:27:49;;;;;;;35.67;20.48;;;;;;;-0.20;79.63;93784.75;5111123;28;20035;-35
2022/02/15 01:30:15;;;;;;;36.63;20.42;;;;;;;-0.08;79.82;93784.44;5111161;28;20035;-38
2022/02/15 01:32:40;;;;;;;43.58;21.13;;;;;;;-0.12;80.77;93778.44;5107332;28;20053;-34
2022/02/15 01:35:06;;;;;;;53.45;26.63;;;;;;;-0.20;82.92;93780.06;5091071;28;20040;-35
2022/02/15 01:37:31;;;;;;;53.67;24.65;;;;;;;-0.32;83.65;93764.84;5106591;28;20050;-37
2022/02/15 01:39:56;;;;;;;53.08;23.92;;;;;;;-0.22;83.57;93773.63;5111334;28;20026;-38
2022/02/15 01:42:22;;;;;;;56.33;23.55;;;;;;;-0.32;83.96;93772.97;5111280;28;20057;-37
2022/02/15 01:44:47;;;;;;;60.95;25.00;;;;;;;-0.35;84.19;93768.50;5111250;28;20027;-35
2022/02/15 01:47:29;;;;;;;41.75;20.65;;;;;;;-0.25;85.21;93772.59;5110837;28;20462;-34
2022/02/15 01:49:56;;;;;;;58.33;22.98;;;;;;;-0.21;85.00;93762.28;5111112;28;20019;-36
2022/02/15 01:52:22;;;;;;;59.92;22.83;;;;;;;-0.18;85.16;93760.59;5111182;28;20027;-37
2022/02/15 01:54:50;;;;;;;53.25;20.83;;;;;;;-0.03;85.00;93767.47;5111074;28;20032;-34
2022/02/15 01:57:16;;;;;;;58.20;22.60;;;;;;;0.10;84.21;93766.41;5110742;28;20098;-37
2022/02/15 01:59:43;;;;;;;49.63;21.88;;;;;;;0.11;84.17;93768.63;5111039;28;20416;-36
2022/02/15 02:02:09;;;;;;;47.95;21.42;;;;;;;0.06;83.36;93768.56;5110687;28;20027;-35
2022/02/15 02:07:19;;;;;;;81.35;29.83;;;;;;;-0.08;85.39;93764.69;5110901;28;20034;-35
2022/02/15 02:09:44;;;;;;;68.78;23.27;;;;;;;-0.34;85.14;93733.97;5109374;28;20102;-35
2022/02/15 02:12:10;;;;;;;52.90;21.75;;;;;;;0.09;84.81;93754.78;5110936;28;20037;-37
2022/02/15 02:14:35;;;;;;;51.85;21.25;;;;;;;-0.11;85.10;93752.06;5110501;28;20088;-38
2022/02/15 02:17:01;;;;;;;47.33;21.95;;;;;;;-0.16;85.97;93741.88;5110844;28;20165;-37
2022/02/15 02:19:26;;;;;;;49.63;24.80;;;;;;;-0.12;85.81;93751.31;5114214;28;20059;-36
2022/02/15 02:21:53;;;;;;;43.08;21.60;;;;;;;-0.01;84.98;93756.16;5114764;28;20031;-37
2022/02/15 02:24:19;;;;;;;43.58;23.13;;;;;;;-0.10;83.79;93759.72;5115084;28;20038;-37
2022/02/15 02:26:44;;;;;;;55.20;22.50;;;;;;;-0.23;85.03;93745.72;5114578;28;20036;-35
2022/02/15 02:29:10;;;;;;;46.70;22.30;;;;;;;-0.26;84.38;93751.38;5108789;28;20027;-36
2022/02/15 02:31:35;;;;;;;52.17;21.77;;;;;;;-0.29;85.63;93755.00;5094196;28;20019;-34
2022/02/15 02:34:01;;;;;;;44.47;21.52;;;;;;;-0.18;85.65;93763.31;5094442;28;20024;-33
2022/02/15 02:36:27;;;;;;;62.58;18.75;;;;;;;-0.25;85.54;93759.03;5094141;28;20408;-37
2022/02/15 02:38:53;;;;;;;65.78;25.48;;;;;;;-0.31;86.81;93760.91;5093836;28;20076;-33
2022/02/15 02:41:18;;;;;;;85.40;22.20;;;;;;;-0.39;87.51;93759.78;5094393;28;20024;-36
2022/02/15 02:43:44;;;;;;;54.90;21.98;;;;;;;-0.19;87.85;93764.50;5094009;28;20027;-33
2022/02/15 02:46:09;;;;;;;66.60;22.60;;;;;;;-0.17;87.21;93770.97;5094240;28;20020;-32
2022/02/15 02:48:34;;;;;;;41.90;20.88;;;;;;;-0.01;86.81;93762.31;5094068;28;20024;-35
2022/02/15 02:51:00;;;;;;;50.65;21.27;;;;;;;0.14;85.83;93778.56;5094150;28;20409;-36
2022/02/15 02:53:25;;;;;;;43.08;19.50;;;;;;;0.26;85.24;93779.47;5093796;28;20504;-33
2022/02/15 02:55:51;;;;;;;43.17;21.25;;;;;;;0.21;85.06;93780.13;5094070;28;20028;-34
2022/02/15 02:58:16;;;;;;;47.30;21.73;;;;;;;0.05;85.22;93773.25;5094007;28;20467;-34
2022/02/15 03:00:42;;;;;;;52.85;22.88;;;;;;;0.24;85.36;93776.47;5093696;28;20524;-34
2022/02/15 03:03:07;;;;;;;53.83;24.60;;;;;;;0.30;84.65;93769.91;5093553;28;20024;-34
2022/02/15 03:05:36;;;;;;;49.90;21.90;;;;;;;0.10;85.31;93769.88;5093912;28;20039;-36
2022/02/15 03:08:01;;;;;;;49.08;21.92;;;;;;;0.14;85.82;93769.66;5093772;28;20047;-33
2022/02/15 03:10:27;;;;;;;64.85;22.80;;;;;;;0.30;85.61;93778.03;5093488;28;20086;-35
2022/02/15 03:12:53;;;;;;;54.25;22.40;;;;;;;0.40;84.46;93775.91;5093445;28;20028;-39
2022/02/15 03:15:18;;;;;;;74.30;22.05;;;;;;;0.20;84.69;93778.63;5093424;28;20028;-34
2022/02/15 03:17:44;;;;;;;56.50;23.55;;;;;;;0.22;85.69;93768.06;5093380;28;20020;-36
2022/02/15 03:20:10;;;;;;;68.00;24.00;;;;;;;0.17;85.38;93782.28;5093401;28;20020;-38
2022/02/15 03:22:35;;;;;;;58.65;21.85;;;;;;;0.09;86.04;93786.63;5093622;28;20412;-38
2022/02/15 03:25:01;;;;;;;45.90;20.67;;;;;;;0.10;86.33;93779.97;5095786;28;20031;-37
2022/02/15 03:27:26;;;;;;;51.90;23.90;;;;;;;0.00;86.60;93771.22;5113849;28;20123;-35
2022/02/15 03:29:52;;;;;;;50.33;21.58;;;;;;;0.00;86.94;93774.66;5113628;28;20521;-36
2022/02/15 03:32:17;;;;;;;51.50;22.13;;;;;;;-0.07;87.52;93780.50;5113804;28;20028;-37
2022/02/15 03:34:43;;;;;;;57.03;22.77;;;;;;;0.12;87.02;93781.00;5113472;28;20249;-37
2022/02/15 03:37:08;;;;;;;51.25;22.52;;;;;;;0.27;86.66;93791.81;5113407;28;20023;-36
2022/02/15 03:39:35;;;;;;;40.08;21.08;;;;;;;0.41;85.26;93801.88;5113107;28;20058;-36
2022/02/15 03:44:48;;;;;;;40.78;21.05;;;;;;;0.47;84.54;93803.44;5113605;28;20123;-33
2022/02/15 03:47:13;;;;;;;39.70;20.70;;;;;;;0.63;84.09;93811.03;5113442;28;20064;-39
2022/02/15 03:49:39;;;;;;;38.28;20.02;;;;;;;0.65;83.89;93821.44;5113441;28;20155;-36
2022/02/15 03:52:05;;;;;;;43.20;23.10;;;;;;;0.37;84.71;93817.63;5113332;28;20466;-36
2022/02/15 03:54:30;;;;;;;47.60;21.17;;;;;;;0.33;85.20;93817.06;5113404;28;20027;-37
2022/02/15 03:56:55;;;;;;;39.67;20.40;;;;;;;0.27;85.68;93813.53;5112916;28;20088;-38
2022/02/15 03:59:21;;;;;;;45.85;21.77;;;;;;;0.42;85.86;93822.38;5113338;28;20050;-38
2022/02/15 04:01:47;;;;;;;45.20;23.08;;;;;;;0.20;85.89;93811.94;5112897;28;20062;-39
2022/02/15 04:04:12;;;;;;;49.95;21.42;;;;;;;0.31;86.58;93812.09;5112888;28;20077;-38
2022/02/15 04:06:38;;;;;;;41.70;21.45;;;;;;;0.35;85.74;93809.19;5112797;28;20024;-38
2022/02/15 04:09:03;;;;;;;42.05;21.30;;;;;;;0.14;86.74;93813.09;5112674;28;20023;-39
2022/02/15 04:11:29;;;;;;;43.63;21.95;;;;;;;0.31;87.07;93805.91;5112795;28;20032;-37
2022/02/15 04:13:54;;;;;;;50.17;26.80;;;;;;;0.40;86.63;93817.41;5112902;28;20030;-36
2022/02/15 04:16:20;;;;;;;46.45;23.40;;;;;;;0.28;86.04;93812.31;5113005;28;20435;-33
2022/02/15 04:18:47;;;;;;;45.63;25.00;;;;;;;0.39;85.74;93799.63;5112489;28;20541;-33
2022/02/15 04:21:14;;;;;;;45.58;22.77;;;;;;;0.59;85.26;93807.03;5110456;28;20026;-34
2022/02/15 04:23:41;;;;;;;39.95;20.60;;;;;;;0.56;84.74;93816.88;5092239;28;20027;-33
2022/02/15 04:26:06;;;;;;;64.22;36.30;;;;;;;0.32;85.42;93810.16;5091454;28;20493;-36
2022/02/15 04:28:32;;;;;;;41.88;23.80;;;;;;;0.27;86.02;93808.09;5091396;28;20029;-37
2022/02/15 04:30:57;;;;;;;39.47;20.88;;;;;;;0.42;85.52;93812.25;5091518;28;20032;-33
2022/02/15 04:33:23;;;;;;;52.22;30.98;;;;;;;0.54;84.50;93810.44;5091415;28;20028;-39
2022/02/15 04:35:49;;;;;;;41.50;21.92;;;;;;;0.43;84.26;93821.91;5091103;28;20027;-38
2022/02/15 04:38:14;;;;;;;45.30;22.15;;;;;;;0.52;84.36;93812.88;5091010;28;20051;-35
2022/02/15 04:40:40;;;;;;;36.63;20.17;;;;;;;0.57;83.68;93826.53;5090814;28;20032;-32
2022/02/15 04:43:05;;;;;;;40.50;20.65;;;;;;;0.60;83.79;93824.81;5091324;28;20073;-35
2022/02/15 04:45:30;;;;;;;42.45;23.02;;;;;;;0.67;83.19;93822.44;5091125;28;20032;-35
2022/02/15 04:47:56;;;;;;;37.20;20.40;;;;;;;0.82;82.51;93821.63;5091066;28;20035;-37
2022/02/15 04:50:21;;;;;;;40.42;19.15;;;;;;;0.86;82.14;93820.19;5090830;28;20088;-34
2022/02/15 04:52:47;;;;;;;37.75;18.90;;;;;;;0.73;82.59;93822.53;5090766;28;20039;-38
2022/02/15 04:55:12;;;;;;;36.65;19.73;;;;;;;0.78;82.45;93816.38;5090769;28;20025;-34
2022/02/15 04:57:37;;;;;;;51.13;20.13;;;;;;;0.68;82.60;93809.59;5090966;28;20020;-38
2022/02/15 05:00:05;;;;;;;38.13;19.70;;;;;;;0.66;82.98;93807.38;5091079;28;20024;-33
2022/02/15 05:02:30;;;;;;;42.40;19.65;;;;;;;0.67;83.15;93811.56;5091258;28;20028;-38
2022/02/15 05:04:58;;;;;;;47.63;24.63;;;;;;;0.78;82.87;93814.41;5090879;28;20512;-40
2022/02/15 05:07:24;;;;;;;53.85;21.92;;;;;;;0.65;82.51;93794.28;5091134;28;20020;-40
2022/02/15 05:09:50;;;;;;;41.75;19.65;;;;;;;0.85;82.65;93818.69;5090372;28;20417;-40
2022/02/15 05:12:17;;;;;;;45.05;19.42;;;;;;;0.81;83.07;93831.00;5090703;28;20032;-40
2022/02/15 05:14:42;;;;;;;40.75;20.85;;;;;;;0.94;82.51;93815.09;5090533;28;20153;-39
2022/02/15 05:17:08;;;;;;;53.10;23.00;;;;;;;0.98;81.97;93819.09;5090946;28;20051;-40
2022/02/15 05:19:33;;;;;;;70.40;26.75;;;;;;;0.93;81.46;93819.78;5110304;28;20062;-36
2022/02/15 05:21:59;;;;;;;70.88;24.20;;;;;;;0.91;82.18;93816.78;5111264;28;20027;-37
2022/02/15 05:24:25;;;;;;;56.67;23.52;;;;;;;0.98;81.65;93812.91;5111451;28;20471;-38
2022/02/15 05:26:51;;;;;;;53.72;25.48;;;;;;;1.05;81.64;93824.13;5111156;28;20485;-38
2022/02/15 05:29:16;;;;;;;50.40;23.67;;;;;;;0.88;82.24;93822.44;5111056;28;20067;-36
2022/02/15 05:31:42;;;;;;;49.78;22.67;;;;;;;0.96;82.08;93826.22;5110945;28;20027;-39
2022/02/15 05:34:07;;;;;;;51.15;24.65;;;;;;;0.54;82.87;93826.72;5110852;28;20019;-38
2022/02/15 05:36:33;;;;;;;48.00;23.40;;;;;;;0.60;83.84;93831.00;5102626;28;20101;-35
2022/02/15 05:38:59;;;;;;;41.15;19.73;;;;;;;0.52;83.80;93829.91;5090260;28;20052;-37
2022/02/15 05:41:25;;;;;;;40.10;19.50;;;;;;;0.60;83.78;93831.00;5090229;28;20402;-39
2022/02/15 05:43:50;;;;;;;47.38;18.65;;;;;;;0.66;83.32;93823.69;5090239;28;20089;-38
2022/02/15 05:46:16;;;;;;;58.80;21.30;;;;;;;0.86;82.26;93819.44;5090390;28;20062;-38
2022/02/15 05:48:41;;;;;;;48.65;24.42;;;;;;;0.85;82.67;93826.84;5090694;28;20047;-34
2022/02/15 05:51:06;;;;;;;41.75;19.60;;;;;;;0.90;82.89;93820.75;5102021;28;20500;-39
2022/02/15 05:53:32;;;;;;;57.15;23.35;;;;;;;0.99;83.80;93819.84;5110875;28;20563;-39
2022/02/15 05:55:59;;;;;;;61.83;22.42;;;;;;;1.05;83.75;93828.81;5090895;28;20027;-37
2022/02/15 05:58:29;;;;;;;45.20;21.30;;;;;;;1.16;83.34;93846.00;5089954;28;20134;-38
2022/02/15 06:00:56;;;;;;;70.20;29.88;;;;;;;1.24;83.19;93857.19;5089591;28;20097;-38
2022/02/15 06:06:06;;;;;;;67.05;28.60;;;;;;;1.35;81.44;93855.34;5108905;28;20054;-36
2022/02/15 06:08:31;;;;;;;103.28;27.77;;;;;;;1.06;82.19;93849.34;5098457;28;20497;-39
2022/02/15 06:10:57;;;;;;;57.15;27.58;;;;;;;1.25;82.66;93861.41;5090198;28;20038;-38
2022/02/15 06:13:22;;;;;;;69.10;23.98;;;;;;;1.18;82.03;93842.78;5089925;28;20024;-40
2022/02/15 06:15:48;;;;;;;76.55;23.63;;;;;;;0.86;82.85;93869.13;5109893;28;20039;-38
2022/02/15 06:18:13;;;;;;;72.47;29.45;;;;;;;0.77;84.37;93872.72;5110634;28;20482;-39
2022/02/15 06:20:39;;;;;;;72.57;31.13;;;;;;;0.80;85.34;93876.47;5110153;28;20024;-40
2022/02/15 06:23:05;;;;;;;77.65;27.15;;;;;;;0.76;85.53;93873.19;5109914;28;20035;-42
2022/02/15 06:25:31;;;;;;;71.03;28.25;;;;;;;0.91;85.60;93865.72;5109586;28;20026;-40
2022/02/15 06:27:57;;;;;;;56.50;23.95;;;;;;;1.19;84.52;93860.59;5109070;28;20024;-35
2022/02/15 06:30:22;;;;;;;73.88;30.75;;;;;;;1.40;83.68;93867.50;5109650;28;20039;-39
2022/02/15 06:32:48;;;;;;;67.20;22.83;;;;;;;1.53;82.94;93859.72;5110279;28;20030;-35
2022/02/15 06:35:14;;;;;;;64.72;29.65;;;;;;;1.69;83.03;93861.84;5110483;28;20088;-39
2022/02/15 06:37:43;;;;;;;59.35;19.73;;;;;;;1.73;81.92;93867.06;5092495;28;20052;-36
2022/02/15 06:40:09;;;;;;;35.35;17.40;;;;;;;1.88;81.16;93865.72;5090318;28;20028;-36
2022/02/15 06:42:35;;;;;;;51.70;20.73;;;;;;;2.02;80.40;93862.13;5088772;28;20629;-37
2022/02/15 06:45:01;;;;;;;32.63;16.90;;;;;;;2.25;79.60;93858.31;5094462;28;20116;-35
2022/02/15 06:47:26;;;;;;;36.08;18.45;;;;;;;2.54;78.71;93856.50;5103342;28;20106;-39
2022/02/15 06:49:52;;;;;;;54.33;25.35;;;;;;;2.78;77.85;93849.47;5090187;28;20482;-38
2022/02/15 06:52:17;;;;;;;56.60;27.05;;;;;;;3.26;77.07;93859.56;5090133;28;20024;-40
2022/02/15 06:54:43;;;;;;;61.00;30.90;;;;;;;3.66;75.12;93859.19;5089988;28;20035;-39
2022/02/15 06:57:08;;;;;;;74.25;34.13;;;;;;;3.95;72.89;93852.50;5106344;28;20034;-38
2022/02/15 06:59:34;;;;;;;52.83;27.50;;;;;;;4.30;71.95;93852.75;5110268;28;20521;-39
2022/02/15 07:02:00;;;;;;;42.03;22.90;;;;;;;4.52;69.98;93844.53;5094831;28;20016;-41
2022/02/15 07:04:25;;;;;;;37.13;20.42;;;;;;;4.93;69.00;93861.09;5091681;28;20032;-40
2022/02/15 07:06:51;;;;;;;41.28;22.65;;;;;;;5.36;67.35;93856.69;5093701;28;20028;-40
2022/02/15 07:09:16;;;;;;;50.58;25.98;;;;;;;5.70;65.70;93862.72;5093757;28;20063;-40
2022/02/15 07:11:42;;;;;;;60.88;30.33;;;;;;;5.79;64.99;93859.69;5095207;28;20070;-39
2022/02/15 07:14:07;;;;;;;62.53;30.48;;;;;;;5.63;65.56;93842.09;5096914;28;20031;-39
2022/02/15 07:16:34;;;;;;;41.97;24.45;;;;;;;6.28;64.86;93855.84;5102110;28;20031;-40
2022/02/15 07:19:00;;;;;;;39.25;22.73;;;;;;;6.91;62.78;93854.81;5111630;28;20179;-40
2022/02/15 07:21:26;;;;;;;32.92;20.60;;;;;;;8.08;59.15;93852.78;5111615;28;20039;-39
2022/02/15 07:23:51;;;;;;;26.77;15.65;;;;;;;8.96;55.60;93855.38;5111622;28;20489;-39
2022/02/15 07:26:18;;;;;;;26.30;17.70;;;;;;;9.48;54.01;93858.13;5111509;28;20028;-40
2022/02/15 07:28:44;;;;;;;25.30;17.10;;;;;;;9.95;53.06;93858.13;5111292;28;20031;-39
2022/02/15 07:31:09;;;;;;;31.05;19.77;;;;;;;9.76;52.04;93855.53;5111550;28;20038;-39
2022/02/15 07:33:35;;;;;;;27.10;16.33;;;;;;;8.60;53.78;93857.72;5111604;28;20031;-37
2022/02/15 07:36:00;;;;;;;25.60;16.80;;;;;;;7.22;59.07;93865.91;5107571;27;20028;-37
2022/02/15 07:38:26;;;;;;;24.83;16.33;;;;;;;7.26;59.49;93873.84;5090466;28;20048;-41
2022/02/15 07:40:51;;;;;;;18.73;13.85;;;;;;;7.26;60.31;93860.13;5090533;28;20046;-37
2022/02/15 07:43:17;;;;;;;21.48;14.43;;;;;;;7.67;58.96;93865.38;5089393;28;20031;-40
2022/02/15 07:45:43;;;;;;;64.20;37.47;;;;;;;8.09;58.87;93861.78;5090387;28;20036;-40
2022/02/15 07:48:08;;;;;;;72.00;44.28;;;;;;;9.03;56.68;93863.72;5090269;28;20042;-37
2022/02/15 07:50:34;;;;;;;34.95;22.83;;;;;;;10.01;52.83;93861.50;5090970;28;20031;-38
2022/02/15 07:52:59;;;;;;;24.45;17.95;;;;;;;11.43;50.84;93858.47;5090960;28;20027;-40
2022/02/15 07:55:25;;;;;;;39.28;23.55;;;;;;;12.45;46.74;93855.75;5091282;28;20041;-40
2022/02/15 07:57:51;;;;;;;31.05;21.20;;;;;;;13.58;44.35;93841.88;5092926;28;20032;-41
2022/02/15 08:00:21;;;;;;;19.08;14.25;;;;;;;14.48;41.15;93837.28;5091961;28;20020;-41
2022/02/15 08:02:47;;;;;;;17.50;14.73;;;;;;;15.45;40.57;93842.63;5110783;28;20042;-41
2022/02/15 08:05:13;;;;;;;19.13;14.98;;;;;;;15.87;38.69;93848.88;5109903;28;20425;-42
2022/02/15 08:07:38;;;;;;;41.92;27.10;;;;;;;15.70;38.93;93843.31;5103448;28;20028;-42
2022/02/15 08:10:05;;;;;;;34.17;24.15;;;;;;;16.65;37.78;93843.28;5102162;28;20485;-42
2022/02/15 08:12:30;;;;;;;31.42;21.83;;;;;;;17.16;36.50;93837.47;5105922;28;20108;-41
2022/02/15 08:14:56;;;;;;;40.17;22.90;;;;;;;17.66;35.33;93834.94;5111402;28;20110;-41
2022/02/15 08:17:22;;;;;;;34.10;21.20;;;;;;;18.23;35.00;93847.47;5109996;28;20405;-41
2022/02/15 08:19:48;;;;;;;18.90;14.98;;;;;;;18.63;33.35;93856.69;5102592;28;20036;-41
2022/02/15 08:22:14;;;;;;;17.05;13.70;;;;;;;18.38;31.92;93849.94;5107754;28;20035;-42
2022/02/15 08:24:40;;;;;;;20.83;14.57;;;;;;;18.22;32.12;93845.97;5111302;28;20092;-42
2022/02/15 08:27:05;;;;;;;19.67;14.73;;;;;;;18.40;33.75;93856.41;5110727;28;20027;-41
2022/02/15 08:29:31;;;;;;;13.88;11.88;;;;;;;18.50;31.48;93850.81;5111581;28;20397;-41
2022/02/15 08:31:58;;;;;;;16.00;11.93;;;;;;;15.81;34.97;93853.94;5110782;28;20575;-41
2022/02/15 08:34:24;;;;;;;14.10;12.52;;;;;;;16.56;34.92;93855.84;5111268;27;20023;-41
2022/02/15 08:36:49;;;;;;;17.77;13.45;;;;;;;17.66;34.22;93857.28;5100398;28;20055;-40
2022/02/15 08:39:15;;;;;;;17.40;13.13;;;;;;;15.07;37.30;93852.03;5090281;28;20078;-41
2022/02/15 08:41:42;;;;;;;17.98;13.63;;;;;;;15.45;38.08;93848.94;5090926;28;20390;-40
2022/02/15 08:44:07;;;;;;;17.10;13.85;;;;;;;16.78;35.59;93854.06;5091122;28;20424;-41
2022/02/15 08:46:33;;;;;;;21.05;14.07;;;;;;;18.00;33.79;93843.06;5091569;28;20024;-41
2022/02/15 08:48:58;;;;;;;16.90;10.52;;;;;;;18.59;32.38;93848.03;5091825;28;20016;-41
2022/02/15 08:51:24;;;;;;;13.10;10.35;;;;;;;18.95;31.23;93849.81;5091606;28;20028;-41
2022/02/15 08:53:51;;;;;;;13.57;11.02;;;;;;;19.10;30.63;93852.25;5091863;28;20437;-41
2022/02/15 08:56:18;;;;;;;13.25;10.55;;;;;;;19.88;28.60;93845.66;5091438;28;20062;-41
2022/02/15 08:58:43;;;;;;;12.38;10.20;;;;;;;20.06;28.51;93846.88;5091515;28;20486;-39
2022/02/15 09:01:10;;;;;;;22.10;16.00;;;;;;;21.03;27.72;93847.44;5091667;28;20035;-41
2022/02/15 09:03:35;;;;;;;15.25;12.40;;;;;;;21.37;26.95;93846.03;5102841;28;20055;-41
2022/02/15 09:06:01;;;;;;;10.40;9.32;;;;;;;20.29;28.61;93840.66;5111689;28;20116;-41
2022/02/15 09:08:27;;;;;;;12.60;9.95;;;;;;;21.27;26.90;93848.94;5111529;28;20489;-41
2022/02/15 09:10:53;;;;;;;15.05;11.35;;;;;;;20.79;27.59;93835.44;5111929;27;20034;-41
2022/02/15 09:13:18;;;;;;;10.73;8.68;;;;;;;21.63;26.33;93839.16;5111814;28;20454;-41
2022/02/15 09:15:44;;;;;;;13.80;8.05;;;;;;;21.91;24.97;93821.19;5111839;28;20035;-41
2022/02/15 09:18:09;;;;;;;8.60;6.85;;;;;;;21.92;25.61;93833.16;5111751;28;20020;-41
2022/02/15 09:20:36;;;;;;;8.48;7.10;;;;;;;22.11;24.54;93830.06;5111422;28;20031;-41
2022/02/15 09:23:02;;;;;;;8.52;7.05;;;;;;;21.89;24.98;93807.00;5111360;28;20038;-41
2022/02/15 09:25:28;;;;;;;15.77;10.20;;;;;;;21.44;25.90;93823.28;5111584;28;20024;-41
2022/02/15 09:27:53;;;;;;;11.55;8.15;;;;;;;21.57;25.24;93830.38;5111258;28;20027;-42
2022/02/15 09:30:18;;;;;;;41.65;9.50;;;;;;;21.10;26.72;93826.84;5111293;28;20026;-42
2022/02/15 09:32:44;;;;;;;9.18;7.30;;;;;;;21.93;25.50;93815.69;5111514;28;20039;-42
2022/02/15 09:35:09;;;;;;;8.20;7.35;;;;;;;20.94;26.97;93811.78;5111101;28;20084;-42
2022/02/15 09:37:35;;;;;;;9.23;7.43;;;;;;;20.79;26.44;93812.28;5094156;28;20036;-41
2022/02/15 09:40:01;;;;;;;13.38;8.48;;;;;;;20.89;27.03;93813.63;5090729;28;20115;-42
2022/02/15 09:42:26;;;;;;;10.27;7.82;;;;;;;21.72;26.20;93808.09;5091008;28;20028;-42
2022/02/15 09:44:51;;;;;;;10.38;8.02;;;;;;;22.13;24.84;93804.84;5090939;28;20478;-41
2022/02/15 09:47:23;;;;;;;9.90;8.15;;;;;;;22.11;24.76;93811.06;5090550;28;20654;-41
2022/02/15 09:49:50;;;;;;;13.88;8.90;;;;;;;22.64;23.60;93797.91;5090535;28;20045;-42
2022/02/15 09:52:17;;;;;;;9.85;8.43;;;;;;;22.58;24.43;93797.56;5090568;28;20024;-42
2022/02/15 09:54:43;;;;;;;11.65;7.60;;;;;;;22.95;24.30;93794.66;5090913;28;20034;-42
2022/02/15 09:57:09;;;;;;;15.15;8.48;;;;;;;22.83;23.16;93788.34;5090399;28;20020;-42
2022/02/15 09:59:35;;;;;;;9.98;8.25;;;;;;;21.81;24.28;93784.75;5099815;28;20488;-41
2022/02/15 10:02:12;;;;;;;19.27;14.00;;;;;;;19.33;27.09;93792.94;5111038;28;20031;-42
2022/02/15 10:04:38;;;;;;;13.93;9.27;;;;;;;17.60;31.19;93787.03;5111050;28;20027;-41
2022/02/15 10:07:08;;;;;;;12.98;9.95;;;;;;;16.79;31.99;93787.84;5110659;28;20019;-42
2022/02/15 10:09:34;;;;;;;13.85;11.15;;;;;;;16.54;32.89;93790.84;5110734;28;20023;-41
2022/02/15 10:12:08;;;;;;;15.95;12.20;;;;;;;16.38;33.00;93795.13;5110937;28;20046;-41
2022/02/15 10:14:38;;;;;;;19.15;11.50;;;;;;;15.50;33.60;93806.25;5111136;28;20047;-41
2022/02/15 10:17:06;;;;;;;12.40;8.85;;;;;;;15.57;33.08;93796.34;5110906;28;20035;-41
2022/02/15 10:19:31;;;;;;;10.00;7.40;;;;;;;16.70;31.66;93791.34;5110640;28;20034;-41
2022/02/15 10:21:58;;;;;;;10.30;6.93;;;;;;;18.57;30.53;93783.56;5110803;28;20027;-41
2022/02/15 10:24:25;;;;;;;11.35;7.25;;;;;;;20.48;28.09;93772.44;5110677;28;20023;-42
2022/02/15 10:27:01;;;;;;;9.32;6.53;;;;;;;21.28;23.71;93765.44;5110462;28;20408;-42
2022/02/15 10:29:29;;;;;;;7.57;6.25;;;;;;;22.02;22.66;93752.19;5110787;28;20023;-42
2022/02/15 10:32:00;;;;;;;10.45;6.97;;;;;;;22.22;23.26;93750.53;5110450;28;20488;-42
2022/02/15 10:34:26;;;;;;;9.05;6.15;;;;;;;22.41;21.93;93745.28;5110725;28;20035;-42
2022/02/15 10:36:58;;;;;;;8.02;6.53;;;;;;;21.23;24.51;93735.63;5098619;28;20035;-42
2022/02/15 10:39:37;;;;;;;10.75;7.53;;;;;;;22.52;23.54;93730.41;5091708;28;20052;-42
2022/02/15 10:42:03;;;;;;;;;;;;;;;22.70;24.17;93739.13;5095060;28;20035;-42
2022/02/15 10:44:28;;;;;;;12.02;8.55;;;;;;;22.53;22.58;93733.94;5094295;28;19994;-41
2022/02/15 10:46:55;;;;;;;13.07;9.15;;;;;;;21.82;26.31;93734.88;5094313;28;20492;-41
2022/02/15 10:49:21;;;;;;;7.20;5.93;;;;;;;22.06;23.96;93718.69;5093948;28;20043;-42
2022/02/15 10:51:47;;;;;;;9.40;6.85;;;;;;;22.93;22.67;93719.25;5093059;28;20028;-41
2022/02/15 10:54:13;;;;;;;8.52;7.20;;;;;;;23.08;22.90;93710.19;5094281;28;20031;-42
2022/02/15 10:56:42;;;;;;;9.45;7.05;;;;;;;23.50;22.62;93711.63;5093791;28;20084;-41
2022/02/15 10:59:07;;;;;;;39.08;21.25;;;;;;;23.67;23.56;93713.19;5093759;28;20020;-41
2022/02/15 11:01:33;;;;;;;17.42;13.00;;;;;;;23.81;23.80;93711.06;5092871;28;20116;-41
2022/02/15 11:03:59;;;;;;;9.88;8.85;;;;;;;24.17;22.39;93712.13;5093992;28;20485;-42
2022/02/15 11:06:24;;;;;;;16.85;11.73;;;;;;;24.23;22.13;93710.34;5092824;28;20110;-41
2022/02/15 11:08:51;;;;;;;17.23;10.60;;;;;;;24.39;21.17;93710.34;5093797;28;20020;-41
2022/02/15 11:11:23;;;;;;;17.85;10.70;;;;;;;23.60;21.46;93700.16;5092406;28;20036;-41
2022/02/15 11:13:48;;;;;;;13.23;8.50;;;;;;;23.16;21.61;93704.97;5092265;28;20535;-41
2022/02/15 11:16:18;;;;;;;21.25;12.32;;;;;;;23.60;23.48;93709.34;5093852;28;20028;-41
2022/02/15 11:18:47;;;;;;;18.75;11.60;;;;;;;24.24;22.32;93696.94;5093810;28;20077;-41
2022/02/15 11:21:21;;;;;;;13.98;10.68;;;;;;;23.77;23.58;93699.59;5093385;28;20517;-41
2022/02/15 11:23:54;;;;;;;19.70;13.32;;;;;;;24.01;22.26;93692.31;5093352;28;20031;-41
2022/02/15 11:26:20;;;;;;;14.80;10.07;;;;;;;23.84;23.56;93704.91;5093553;28;20024;-42